Time;durP1;ratioP1;P1;durP2;ratioP2;P2;SDS_P1;SDS_P2;PMS_P1;PMS_P2;Temp;Humidity;BMP_temperature;BMP_pressure;BME280_temperature;BME280_humidity;BME280_pressure;Samples;Min_cycle;Max_cycle;Signal;HPM_P1;HPM_P2
2022/04/14 00:02:21;;;;;;;;;6.00;5.00;;;;;23.46;84.27;101730.94;5055480;28;51288;-63
2022/04/14 00:04:46;;;;;;;;;5.33;5.33;;;;;23.48;84.62;101734.47;5055909;28;51317;-65
2022/04/14 00:07:11;;;;;;;;;6.67;6.67;;;;;23.47;84.28;101731.81;5035565;28;45659;-63
2022/04/14 00:09:37;;;;;;;;;5.00;5.00;;;;;23.47;84.78;101730.00;5051406;28;57813;-62
2022/04/14 00:12:03;;;;;;;;;6.00;6.00;;;;;23.46;84.69;101730.94;5038148;28;45961;-62
2022/04/14 00:14:28;;;;;;;;;5.00;5.00;;;;;23.44;84.67;101715.75;5056075;28;45271;-64
2022/04/14 00:16:53;;;;;;;;;5.67;4.33;;;;;23.46;84.65;101730.06;5051695;28;50882;-63
2022/04/14 00:19:19;;;;;;;;;6.00;5.00;;;;;23.45;84.73;101728.31;5052165;28;58995;-62
2022/04/14 00:21:44;;;;;;;;;6.33;6.00;;;;;23.43;84.57;101730.13;5048329;28;55374;-63
2022/04/14 00:24:10;;;;;;;;;7.00;6.67;;;;;23.43;84.67;101727.44;5051660;28;50948;-63
2022/04/14 00:26:36;;;;;;;;;6.33;5.00;;;;;23.45;84.52;101739.97;5028219;28;45436;-63
2022/04/14 00:29:01;;;;;;;;;8.00;6.33;;;;;23.43;84.45;101733.72;5050770;28;45453;-65
2022/04/14 00:31:27;;;;;;;;;5.00;5.00;;;;;23.44;84.73;101731.94;5050261;28;45377;-65
2022/04/14 00:33:52;;;;;;;;;6.00;4.33;;;;;23.44;84.85;101740.91;5059181;28;50612;-63
2022/04/14 00:36:18;;;;;;;;;8.00;5.00;;;;;23.43;84.58;101732.81;5060006;28;45387;-62
2022/04/14 00:38:43;;;;;;;;;6.33;5.00;;;;;23.45;84.64;101739.09;5058506;28;58040;-66
2022/04/14 00:41:09;;;;;;;;;7.00;6.00;;;;;23.42;84.91;101725.69;5056310;28;55394;-63
2022/04/14 00:43:35;;;;;;;;;9.00;6.00;;;;;23.45;84.84;101725.59;5035081;28;48911;-63
2022/04/14 00:46:01;;;;;;;;;6.00;6.00;;;;;23.44;84.71;101727.41;5056345;28;45454;-64
2022/04/14 00:48:28;;;;;;;;;6.00;6.00;;;;;23.41;84.69;101732.88;5059275;28;45867;-63
2022/04/14 00:50:53;;;;;;;;;6.67;6.67;;;;;23.42;84.74;101729.25;5052419;28;45533;-62
2022/04/14 00:53:21;;;;;;;;;8.00;7.00;;;;;23.42;84.53;101734.66;5059198;28;45328;-63
2022/04/14 00:55:46;;;;;;;;;7.00;5.67;;;;;23.41;84.67;101730.19;5054396;28;45528;-63
2022/04/14 00:58:12;;;;;;;;;5.00;5.00;;;;;23.42;84.77;101733.75;5050463;28;45699;-64
2022/04/14 01:00:38;;;;;;;;;6.67;6.67;;;;;23.41;84.72;101730.19;5053553;28;45249;-64
2022/04/14 01:03:04;;;;;;;;;6.00;6.00;;;;;23.42;84.83;101733.75;5058631;28;45496;-62
2022/04/14 01:05:29;;;;;;;;;6.00;5.33;;;;;23.42;84.70;101728.38;5055130;28;45344;-63
2022/04/14 01:07:56;;;;;;;;;6.33;5.33;;;;;23.40;84.69;101731.13;5027523;28;51641;-64
2022/04/14 01:10:22;;;;;;;;;5.33;5.33;;;;;23.40;84.79;101724.84;5040825;28;45333;-65
2022/04/14 01:12:48;;;;;;;;;5.00;5.00;;;;;23.40;84.69;101736.50;5032973;28;45351;-63
2022/04/14 01:15:14;;;;;;;;;7.00;6.00;;;;;23.40;84.87;101736.50;5058423;28;47869;-62
2022/04/14 01:17:40;;;;;;;;;6.00;6.00;;;;;23.38;84.51;101735.66;5035278;28;46401;-63
2022/04/14 01:20:08;;;;;;;;;5.67;5.67;;;;;23.38;84.80;101735.66;5056251;28;45400;-65
2022/04/14 01:22:35;;;;;;;;;5.00;5.00;;;;;23.39;84.60;101737.44;5029228;28;45405;-63
2022/04/14 01:25:01;;;;;;;;;6.33;6.33;;;;;23.39;84.89;101736.56;5054309;28;45185;-63
2022/04/14 01:27:28;;;;;;;;;7.00;7.00;;;;;23.38;84.76;101734.78;5050993;28;46805;-63
2022/04/14 01:29:53;;;;;;;;;6.00;6.00;;;;;23.39;84.87;101733.88;5026629;28;45573;-62
2022/04/14 01:32:22;;;;;;;;;6.33;5.33;;;;;23.39;84.69;101737.44;5055478;28;45300;-63
2022/04/14 01:34:49;;;;;;;;;5.00;5.00;;;;;23.37;84.79;101736.59;5052852;28;45356;-63
2022/04/14 01:37:14;;;;;;;;;6.00;5.67;;;;;23.38;84.93;101738.34;5058616;28;47784;-66
2022/04/14 01:39:40;;;;;;;;;6.67;5.33;;;;;23.37;85.14;101731.19;5054597;28;48432;-66
2022/04/14 01:42:05;;;;;;;;;5.33;5.33;;;;;23.36;84.95;101729.44;5054537;28;45391;-65
2022/04/14 01:44:31;;;;;;;;;5.00;5.00;;;;;23.39;84.81;101734.75;5009593;28;45543;-64
2022/04/14 01:46:57;;;;;;;;;5.33;4.33;;;;;23.37;84.58;101736.59;5032297;28;45607;-65
2022/04/14 01:49:22;;;;;;;;;5.00;5.00;;;;;23.37;84.83;101733.88;5037941;28;45364;-63
2022/04/14 01:51:50;;;;;;;;;8.00;6.00;;;;;23.39;84.91;101731.16;5024497;28;45660;-62
2022/04/14 01:54:16;;;;;;;;;5.67;5.67;;;;;23.38;85.12;101724.88;5035798;28;45409;-66
2022/04/14 01:56:42;;;;;;;;;7.00;6.67;;;;;23.38;85.19;101722.19;5037909;28;46186;-63
2022/04/14 01:59:10;;;;;;;;;6.33;6.33;;;;;23.38;85.15;101724.88;5034381;28;45522;-63
2022/04/14 02:01:36;;;;;;;;;5.33;5.33;;;;;23.40;84.95;101727.53;5038112;28;45439;-63
2022/04/14 02:04:02;;;;;;;;;5.33;5.33;;;;;23.40;84.98;101733.81;5037386;28;49305;-63
2022/04/14 02:06:28;;;;;;;;;7.33;6.00;;;;;23.39;85.06;101729.34;5037442;28;47512;-63
2022/04/14 02:08:54;;;;;;;;;9.00;5.00;;;;;23.41;85.04;101732.88;5015264;28;45354;-64
2022/04/14 02:11:19;;;;;;;;;7.00;5.67;;;;;23.39;84.91;101732.06;5037794;28;46184;-63
2022/04/14 02:13:45;;;;;;;;;5.00;5.00;;;;;23.41;85.19;101735.56;5037966;28;45269;-63
2022/04/14 02:16:10;;;;;;;;;8.00;6.00;;;;;23.41;85.22;101732.88;5033911;28;56106;-63
2022/04/14 02:18:35;;;;;;;;;6.33;6.00;;;;;23.42;85.25;101728.38;5035282;28;54999;-62
2022/04/14 02:21:01;;;;;;;;;4.67;4.67;;;;;23.41;85.34;101732.88;5036377;28;45319;-65
2022/04/14 02:23:26;;;;;;;;;5.67;5.67;;;;;23.40;85.26;101727.53;5037544;28;45637;-62
2022/04/14 02:25:52;;;;;;;;;6.67;6.67;;;;;23.43;85.33;101732.81;5034592;28;46661;-65
2022/04/14 02:28:17;;;;;;;;;6.00;4.67;;;;;23.43;84.95;101732.81;5037450;28;45432;-62
2022/04/14 02:30:43;;;;;;;;;4.67;4.67;;;;;23.40;85.14;101727.53;5035428;28;45356;-63
2022/04/14 02:33:08;;;;;;;;;5.33;5.33;;;;;23.43;85.12;101736.41;5036637;28;49382;-64
2022/04/14 02:35:34;;;;;;;;;7.67;4.33;;;;;23.43;85.12;101739.09;5033805;28;61602;-63
2022/04/14 02:37:59;;;;;;;;;5.00;5.00;;;;;23.43;85.12;101732.81;5036620;28;62902;-65
2022/04/14 02:40:25;;;;;;;;;6.33;5.33;;;;;23.40;85.17;101731.13;5035383;28;54500;-64
2022/04/14 02:42:50;;;;;;;;;5.00;5.00;;;;;23.43;85.01;101733.72;5057222;22;45305;-64
2022/04/14 02:45:16;;;;;;;;;6.00;6.00;;;;;23.42;85.17;101737.34;5048827;28;47235;-64
2022/04/14 02:47:41;;;;;;;;;5.00;5.00;;;;;23.42;85.33;101731.06;5044348;28;45401;-64
2022/04/14 02:50:07;;;;;;;;;6.67;5.33;;;;;23.42;85.20;101734.66;5054493;28;45227;-63
2022/04/14 02:52:32;;;;;;;;;4.33;4.33;;;;;23.43;85.06;101733.72;5048743;28;45188;-62
2022/04/14 02:54:58;;;;;;;;;6.67;5.33;;;;;23.44;85.25;101735.50;5050808;28;64503;-65
2022/04/14 02:57:23;;;;;;;;;5.00;5.00;;;;;23.45;85.53;101742.66;5056761;28;60877;-63
2022/04/14 02:59:48;;;;;;;;;8.00;5.00;;;;;23.46;85.25;101744.44;5047690;28;55771;-63
2022/04/14 03:02:14;;;;;;;;;7.33;5.33;;;;;23.48;85.27;101741.69;5051426;28;45432;-62
2022/04/14 03:04:39;;;;;;;;;7.00;5.00;;;;;23.48;85.33;101739.84;5041715;28;46093;-61
2022/04/14 03:07:05;;;;;;;;;5.33;5.33;;;;;23.51;85.32;101752.38;5050265;28;54115;-62
2022/04/14 03:09:30;;;;;;;;;6.00;6.00;;;;;23.51;85.41;101745.19;5056008;28;45393;-62
2022/04/14 03:11:56;;;;;;;;;6.33;5.00;;;;;23.51;85.00;101747.88;5057846;28;45450;-62
2022/04/14 03:14:21;;;;;;;;;9.00;5.00;;;;;23.51;85.11;101742.47;5057516;28;46443;-63
2022/04/14 03:16:46;;;;;;;;;7.00;5.67;;;;;23.51;85.17;101745.19;5057989;28;45383;-63
2022/04/14 03:19:12;;;;;;;;;6.00;5.00;;;;;23.51;85.06;101738.91;5055447;28;45593;-65
2022/04/14 03:21:37;;;;;;;;;4.33;4.33;;;;;23.53;85.00;101743.31;5056797;28;46535;-62
2022/04/14 03:24:03;;;;;;;;;6.00;5.00;;;;;23.52;84.88;101743.38;5048461;28;47720;-62
2022/04/14 03:26:28;;;;;;;;;8.00;5.00;;;;;23.52;84.89;101743.38;5053343;28;45492;-62
2022/04/14 03:28:53;;;;;;;;;8.00;6.00;;;;;23.52;84.93;101746.94;5055267;28;45525;-61
2022/04/14 03:31:19;;;;;;;;;6.00;6.00;;;;;23.50;84.90;101743.41;5052812;28;54281;-62
2022/04/14 03:33:44;;;;;;;;;7.33;5.33;;;;;23.50;85.04;101747.94;5051798;28;63421;-62
2022/04/14 03:36:09;;;;;;;;;8.00;7.00;;;;;23.49;84.66;101747.03;5055850;28;59509;-62
2022/04/14 03:38:35;;;;;;;;;6.00;6.00;;;;;23.50;84.83;101756.00;5056105;28;48673;-63
2022/04/14 03:41:02;;;;;;;;;7.00;7.00;;;;;23.49;84.67;101754.25;5056463;28;45561;-62
2022/04/14 03:43:28;;;;;;;;;5.00;5.00;;;;;23.49;84.35;101767.72;5053912;28;46720;-62
2022/04/14 03:45:53;;;;;;;;;5.67;5.67;;;;;23.50;84.71;101761.41;5056246;28;45408;-63
2022/04/14 03:48:18;;;;;;;;;6.33;5.33;;;;;23.49;84.57;101765.91;5055410;28;56618;-63
2022/04/14 03:50:44;;;;;;;;;7.00;7.00;;;;;23.49;84.59;101765.03;5054186;28;45654;-62
2022/04/14 03:53:09;;;;;;;;;7.67;7.00;;;;;23.45;84.40;101761.53;5053525;28;54636;-66
2022/04/14 03:55:35;;;;;;;;;6.00;5.67;;;;;23.47;84.90;101769.56;5046920;28;45460;-62
2022/04/14 03:58:00;;;;;;;;;7.33;6.00;;;;;23.46;84.51;101755.19;5054654;28;54287;-62
2022/04/14 04:00:26;;;;;;;;;6.00;6.00;;;;;23.45;84.52;101756.13;5053259;28;56389;-62
2022/04/14 04:02:51;;;;;;;;;7.00;6.00;;;;;23.46;84.61;101754.31;5055930;28;47182;-64
2022/04/14 04:05:16;;;;;;;;;5.67;5.67;;;;;23.44;84.52;101748.09;5055647;28;45461;-65
2022/04/14 04:07:42;;;;;;;;;7.00;7.00;;;;;23.45;84.49;101757.94;5056357;28;45369;-61
2022/04/14 04:10:07;;;;;;;;;8.00;6.00;;;;;23.44;84.47;101758.88;5050552;28;45595;-65
2022/04/14 04:12:33;;;;;;;;;6.00;6.00;;;;;23.44;84.60;101754.38;5055714;28;46514;-65
2022/04/14 04:14:58;;;;;;;;;7.00;7.00;;;;;23.43;84.42;101755.28;5055932;28;45266;-62
2022/04/14 04:17:23;;;;;;;;;7.33;6.00;;;;;23.41;84.50;101753.56;5049282;28;56827;-63
2022/04/14 04:19:49;;;;;;;;;6.00;6.00;;;;;23.42;84.37;101760.72;5051600;28;55444;-62
2022/04/14 04:22:15;;;;;;;;;8.00;8.00;;;;;23.40;84.26;101767.97;5055881;28;46340;-62
2022/04/14 04:24:40;;;;;;;;;7.33;7.33;;;;;23.39;84.28;101766.22;5055664;28;45403;-62
2022/04/14 04:27:06;;;;;;;;;8.00;7.00;;;;;23.39;84.29;101766.22;5042515;28;57269;-61
2022/04/14 04:29:32;;;;;;;;;7.00;7.00;;;;;23.39;84.54;101767.09;5055060;28;45700;-62
2022/04/14 04:31:57;;;;;;;;;7.67;7.67;;;;;23.39;84.30;101779.69;5051717;28;46454;-62
2022/04/14 04:34:23;;;;;;;;;6.33;6.00;;;;;23.37;84.32;101768.94;5052246;28;45518;-62
2022/04/14 04:36:48;;;;;;;;;7.00;6.67;;;;;23.38;84.13;101775.19;5047573;28;57130;-67
2022/04/14 04:39:14;;;;;;;;;8.00;7.00;;;;;23.36;84.33;101777.94;5055849;28;45496;-64
2022/04/14 04:41:39;;;;;;;;;8.33;6.00;;;;;23.36;84.29;101782.44;5054745;28;45212;-64
2022/04/14 04:44:05;;;;;;;;;8.00;8.00;;;;;23.38;84.48;101786.88;5049232;28;45493;-65
2022/04/14 04:46:31;;;;;;;;;6.00;6.00;;;;;23.37;84.45;101785.09;5056339;28;45308;-64
2022/04/14 04:48:56;;;;;;;;;8.00;8.00;;;;;23.39;84.42;101794.03;5054928;28;45578;-64
2022/04/14 04:51:22;;;;;;;;;7.00;7.00;;;;;23.39;84.42;101787.78;5050594;28;46005;-64
2022/04/14 04:53:47;;;;;;;;;6.67;6.67;;;;;23.38;84.36;101794.06;5054973;28;45317;-63
2022/04/14 04:56:13;;;;;;;;;6.00;6.00;;;;;23.40;84.48;101789.53;5051111;28;57329;-63
2022/04/14 04:58:38;;;;;;;;;7.00;7.00;;;;;23.40;84.39;101784.16;5055042;28;45556;-67
2022/04/14 05:01:03;;;;;;;;;6.67;6.00;;;;;23.40;84.84;101782.34;5053196;28;60009;-63
2022/04/14 05:03:29;;;;;;;;;6.67;6.67;;;;;23.39;84.56;101783.28;5053536;28;58468;-63
2022/04/14 05:05:54;;;;;;;;;8.33;6.00;;;;;23.40;84.48;101784.16;5054885;28;56934;-62
2022/04/14 05:08:19;;;;;;;;;6.00;6.00;;;;;23.40;84.45;101785.03;5055159;28;45392;-62
2022/04/14 05:10:45;;;;;;;;;6.67;6.33;;;;;23.42;84.51;101793.06;5050839;28;65410;-62
2022/04/14 05:13:10;;;;;;;;;6.00;6.00;;;;;23.41;84.41;101791.31;5042395;28;60032;-62
2022/04/14 05:15:36;;;;;;;;;5.67;5.67;;;;;23.43;84.44;101784.94;5046644;28;54613;-62
2022/04/14 05:18:01;;;;;;;;;5.67;5.00;;;;;23.42;84.36;101790.38;5055666;28;45540;-63
2022/04/14 05:20:27;;;;;;;;;5.67;5.33;;;;;23.41;84.28;101791.31;5055480;28;46407;-63
2022/04/14 05:22:52;;;;;;;;;7.00;7.00;;;;;23.42;84.26;101788.56;5055585;28;45355;-63
2022/04/14 05:25:17;;;;;;;;;6.67;5.67;;;;;23.44;84.36;101802.03;5050662;28;45339;-62
2022/04/14 05:27:43;;;;;;;;;13.33;12.00;;;;;23.40;79.55;101800.31;5054451;28;53889;-62
2022/04/14 05:30:09;;;;;;;;;14.33;12.00;;;;;23.16;75.08;101812.63;5055684;28;46516;-64
2022/04/14 05:32:39;;;;;;;;;14.00;13.00;;;;;22.82;72.60;101807.16;5053220;28;45617;-63
2022/04/14 05:35:07;;;;;;;;;14.67;14.67;;;;;22.40;72.27;101810.81;5053520;28;45248;-63
2022/04/14 05:37:32;;;;;;;;;14.00;13.00;;;;;21.97;72.55;101810.81;5050919;28;45556;-64
2022/04/14 05:39:57;;;;;;;;;16.33;13.33;;;;;21.61;73.57;101816.00;5049410;28;51746;-63
2022/04/14 05:42:23;;;;;;;;;18.67;15.00;;;;;21.28;74.55;101822.84;5054004;28;45410;-63
2022/04/14 05:44:48;;;;;;;;;18.00;15.00;;;;;21.00;75.27;101821.56;5050386;28;45978;-64
2022/04/14 05:47:14;;;;;;;;;15.00;14.00;;;;;20.72;75.68;101830.06;5052004;28;45346;-64
2022/04/14 05:49:39;;;;;;;;;14.00;13.67;;;;;20.41;77.13;101827.78;5057109;28;46312;-65
2022/04/14 05:52:05;;;;;;;;;15.33;13.33;;;;;20.17;78.75;101832.56;5054570;28;53351;-63
2022/04/14 05:54:30;;;;;;;;;15.67;14.67;;;;;19.96;79.82;101821.19;5055243;28;45483;-64
2022/04/14 05:56:56;;;;;;;;;17.67;15.67;;;;;19.79;80.29;101826.75;5051056;28;53743;-63
2022/04/14 05:59:21;;;;;;;;;15.33;15.33;;;;;19.59;81.39;101831.44;5053485;28;47426;-63
2022/04/14 06:01:47;;;;;;;;;17.00;17.00;;;;;19.38;82.60;101827.13;5053751;28;45553;-63
2022/04/14 06:04:13;;;;;;;;;18.00;16.33;;;;;19.24;83.24;101845.16;5052055;28;45380;-63
2022/04/14 06:06:39;;;;;;;;;21.00;19.00;;;;;19.06;84.84;101848.84;5042913;28;46782;-63
2022/04/14 06:09:04;;;;;;;;;21.33;17.67;;;;;18.94;86.19;101859.66;5052232;28;46797;-64
2022/04/14 06:11:30;;;;;;;;;27.67;22.00;;;;;18.81;89.12;101856.19;5056641;28;60632;-63
2022/04/14 06:13:55;;;;;;;;;20.67;17.67;;;;;18.55;88.01;101856.31;5055827;28;45553;-63
2022/04/14 06:16:21;;;;;;;;;22.00;20.67;;;;;18.36;89.60;101868.88;5053180;28;54676;-63
2022/04/14 06:18:46;;;;;;;;;21.33;19.33;;;;;18.21;90.44;101861.78;5054666;28;45685;-62
2022/04/14 06:21:11;;;;;;;;;23.00;21.33;;;;;18.14;91.40;101872.53;5052745;28;58083;-62
2022/04/14 06:23:37;;;;;;;;;27.33;24.67;;;;;18.12;95.15;101875.22;5051094;28;55116;-62
2022/04/14 06:26:03;;;;;;;;;29.00;26.00;;;;;17.98;97.90;101864.56;5055144;28;54370;-62
2022/04/14 06:28:29;;;;;;;;;25.67;23.00;;;;;17.86;93.74;101869.94;5054722;28;45723;-62
2022/04/14 06:30:56;;;;;;;;;24.25;21.75;;;;;17.76;94.13;101876.19;5052671;28;45626;-62
2022/04/14 06:33:23;;;;;;;;;23.00;23.00;;;;;17.73;95.65;101871.72;5051181;28;45946;-62
2022/04/14 06:35:49;;;;;;;;;25.33;22.00;;;;;17.66;96.30;101874.41;5043241;28;45438;-62
2022/04/14 06:38:14;;;;;;;;;20.33;20.33;;;;;17.69;97.18;101879.75;5052299;28;45725;-63
2022/04/14 06:40:40;;;;;;;;;24.33;21.33;;;;;17.85;97.76;101886.88;5048383;28;45475;-62
2022/04/14 06:43:05;;;;;;;;;16.00;16.00;;;;;17.96;100.00;101887.72;5056462;28;45816;-60
2022/04/14 06:45:31;;;;;;;;;19.00;13.00;;;;;18.17;100.00;101881.44;5052446;28;45406;-60
2022/04/14 06:47:57;;;;;;;;;15.67;12.33;;;;;18.49;100.00;101889.31;5051360;28;45681;-61
2022/04/14 06:50:22;;;;;;;;;16.00;12.33;;;;;18.78;100.00;101888.28;5053442;28;45335;-61
2022/04/14 06:52:47;;;;;;;;;13.00;11.00;;;;;19.06;100.00;101889.00;5051494;28;45443;-60
2022/04/14 06:55:15;;;;;;;;;10.33;8.67;;;;;19.31;100.00;101890.59;5052038;28;49970;-60
2022/04/14 06:57:41;;;;;;;;;10.67;10.67;;;;;19.57;100.00;101887.69;5045842;28;47876;-60
2022/04/14 07:00:07;;;;;;;;;12.33;11.00;;;;;19.78;100.00;101886.63;5051092;28;45569;-60
2022/04/14 07:02:32;;;;;;;;;11.00;11.00;;;;;19.99;100.00;101873.91;5057175;28;45431;-60
2022/04/14 07:04:59;;;;;;;;;16.00;14.33;;;;;20.21;99.03;101878.09;5057235;28;45305;-61
2022/04/14 07:07:24;;;;;;;;;24.67;16.33;;;;;20.37;98.38;101879.69;5056661;28;46491;-61
2022/04/14 07:09:50;;;;;;;;;27.67;18.00;;;;;20.55;97.67;101877.69;5053197;28;45552;-62
2022/04/14 07:12:15;;;;;;;;;16.67;16.00;;;;;20.72;97.51;101886.41;5051970;28;45503;-61
2022/04/14 07:14:40;;;;;;;;;16.67;14.67;;;;;20.84;96.91;101882.66;5050011;28;51883;-62
2022/04/14 07:17:06;;;;;;;;;17.67;13.00;;;;;20.96;96.45;101878.91;5046987;28;60459;-59
2022/04/14 07:19:31;;;;;;;;;13.33;11.00;;;;;21.08;95.50;101876.91;5054711;28;45421;-61
2022/04/14 07:21:56;;;;;;;;;10.00;10.00;;;;;21.19;95.14;101882.97;5055544;28;45806;-61
2022/04/14 07:24:22;;;;;;;;;12.67;10.33;;;;;21.31;94.57;101891.81;5050342;28;53911;-60
2022/04/14 07:26:47;;;;;;;;;13.67;10.33;;;;;21.38;94.88;101886.31;5055866;28;56377;-61
2022/04/14 07:29:13;;;;;;;;;13.00;11.00;;;;;21.50;94.33;101889.69;5056906;28;45434;-61
2022/04/14 07:31:39;;;;;;;;;12.33;9.00;;;;;21.58;93.69;101898.53;5055393;28;48736;-60
2022/04/14 07:34:06;;;;;;;;;11.33;10.00;;;;;21.66;93.72;101889.38;5055574;28;45386;-61
2022/04/14 07:36:31;;;;;;;;;12.00;9.33;;;;;21.72;93.30;101888.38;5048945;28;47535;-59
2022/04/14 07:38:56;;;;;;;;;18.67;11.00;;;;;21.80;92.70;101893.63;5055480;28;57070;-61
2022/04/14 07:41:22;;;;;;;;;12.00;11.00;;;;;21.86;92.62;101897.09;5054501;28;45517;-61
2022/04/14 07:43:47;;;;;;;;;16.00;10.67;;;;;21.89;92.33;101894.34;5056196;28;45347;-62
2022/04/14 07:46:13;;;;;;;;;12.00;10.33;;;;;21.96;92.20;101887.06;5056421;28;50171;-60
2022/04/14 07:48:38;;;;;;;;;15.33;11.00;;;;;22.03;92.03;101893.19;5054894;28;45483;-61
2022/04/14 07:51:04;;;;;;;;;16.00;11.00;;;;;22.05;92.38;101889.56;5048887;28;56336;-61
2022/04/14 07:53:30;;;;;;;;;15.33;12.00;;;;;22.10;91.67;101886.75;5055596;28;45545;-62
2022/04/14 07:55:55;;;;;;;;;14.00;11.67;;;;;22.17;91.59;101900.09;5044726;28;46602;-61
2022/04/14 07:58:20;;;;;;;;;13.00;10.33;;;;;22.21;91.36;101899.13;5050903;28;59994;-61
2022/04/14 08:00:47;;;;;;;;;15.33;12.00;;;;;22.26;91.55;101907.09;5053139;28;55410;-60
2022/04/14 08:03:13;;;;;;;;;10.67;9.00;;;;;22.31;90.93;101896.22;5056272;28;45454;-60
2022/04/14 08:05:41;;;;;;;;;18.00;11.67;;;;;22.34;90.61;101891.69;5055690;28;47461;-61
2022/04/14 08:08:08;;;;;;;;;13.67;11.00;;;;;22.38;90.58;101890.72;5056291;28;45529;-62
2022/04/14 08:10:34;;;;;;;;;10.00;8.33;;;;;22.39;90.31;101894.28;5056319;28;45259;-60
2022/04/14 08:13:00;;;;;;;;;10.67;10.67;;;;;22.43;90.52;101891.50;5055753;28;45646;-60
2022/04/14 08:15:26;;;;;;;;;14.00;10.00;;;;;22.45;90.30;101895.03;5055320;28;47421;-60
2022/04/14 08:17:51;;;;;;;;;10.67;10.33;;;;;22.47;90.50;101898.56;5054080;28;45438;-61
2022/04/14 08:20:17;;;;;;;;;12.00;8.33;;;;;22.53;90.17;101897.56;5050101;28;45573;-61
2022/04/14 08:22:58;;;;;;;;;13.00;11.00;;;;;22.57;90.07;101896.56;5051863;28;45663;-61
2022/04/14 08:25:28;;;;;;;;;10.00;9.33;;;;;22.59;89.76;101899.25;5055229;28;46548;-60
2022/04/14 08:27:55;;;;;;;;;12.33;10.33;;;;;22.62;89.70;101902.75;5052595;28;45505;-60
2022/04/14 08:30:22;;;;;;;;;9.00;9.00;;;;;22.66;89.59;101900.88;5052123;28;45610;-62
2022/04/14 08:32:48;;;;;;;;;9.33;9.33;;;;;;;;5049780;28;45418;-60
2022/04/14 08:35:15;;;;;;;;;8.67;8.67;;;;;22.70;89.18;101914.25;5055793;28;47456;-61
2022/04/14 08:37:41;;;;;;;;;12.33;9.00;;;;;22.74;89.15;101909.66;5055710;28;45484;-60
2022/04/14 08:40:09;;;;;;;;;8.00;8.00;;;;;22.77;89.22;101903.31;5055835;28;45445;-60
2022/04/14 08:42:39;;;;;;;;;9.00;8.00;;;;;22.79;89.25;101898.78;5055374;28;45367;-61
2022/04/14 08:45:08;;;;;;;;;12.33;9.33;;;;;22.79;88.96;101896.97;5054814;28;48168;-61
2022/04/14 08:47:35;;;;;;;;;12.00;9.33;;;;;22.84;88.98;101913.03;5051828;28;45533;-60
2022/04/14 08:50:00;;;;;;;;;9.00;7.33;;;;;22.86;88.73;101905.81;5052894;28;45185;-60
2022/04/14 08:52:26;;;;;;;;;11.33;9.00;;;;;22.87;88.52;101907.59;5056819;28;52273;-61
2022/04/14 08:54:53;;;;;;;;;8.67;8.67;;;;;22.90;88.50;101911.09;5047238;28;46715;-60
2022/04/14 08:57:19;;;;;;;;;10.33;9.00;;;;;22.92;88.08;101911.97;5054186;28;45549;-61
2022/04/14 08:59:45;;;;;;;;;7.67;6.67;;;;;22.94;88.19;101912.81;5056597;28;45414;-61
2022/04/14 09:02:16;;;;;;;;;8.67;7.00;;;;;22.94;88.00;101903.84;5049106;28;45521;-60
2022/04/14 09:04:43;;;;;;;;;8.00;7.33;;;;;22.95;87.89;101909.19;5050866;28;46592;-60
2022/04/14 09:07:09;;;;;;;;;9.00;6.00;;;;;22.98;87.91;101914.53;5054613;28;45561;-62
2022/04/14 09:09:34;;;;;;;;;7.67;6.33;;;;;23.00;87.88;101914.47;5049878;28;45378;-62
2022/04/14 09:12:05;;;;;;;;;11.00;8.33;;;;;23.01;87.87;101905.50;5044539;28;45570;-61
2022/04/14 09:14:34;;;;;;;;;7.00;5.67;;;;;23.03;87.83;101909.03;5072455;28;47108;-61
2022/04/14 09:17:09;;;;;;;;;9.00;8.00;;;;;23.07;87.63;101917.94;5057943;28;45513;-61
2022/04/14 09:19:35;;;;;;;;;6.33;6.33;;;;;23.08;87.84;101908.94;5051787;28;47372;-62
2022/04/14 09:22:09;;;;;;;;;8.00;8.00;;;;;23.10;87.54;101913.34;5056781;28;47413;-62
2022/04/14 09:24:49;;;;;;;;;6.67;6.67;;;;;23.12;87.52;101910.63;5052866;28;47657;-60
2022/04/14 09:27:26;;;;;;;;;8.00;6.67;;;;;23.12;87.53;101914.22;5058717;28;45529;-61
2022/04/14 09:29:53;;;;;;;;;7.67;6.00;;;;;23.12;87.38;101914.22;5051729;28;45496;-60
2022/04/14 09:32:30;;;;;;;;;8.33;7.00;;;;;23.11;87.46;101901.63;5053372;28;45577;-62
2022/04/14 09:34:57;;;;;;;;;7.00;5.33;;;;;23.13;87.35;101902.50;5055247;28;47689;-62
2022/04/14 09:37:23;;;;;;;;;6.67;6.67;;;;;23.14;87.46;101906.97;5051709;28;45443;-60
2022/04/14 09:40:08;;;;;;;;;6.67;6.67;;;;;23.15;87.32;101905.16;5058474;28;45245;-61
2022/04/14 09:42:43;;;;;;;;;7.67;5.00;;;;;23.17;87.16;101904.22;5053985;28;45529;-60
2022/04/14 09:45:25;;;;;;;;;7.00;6.00;;;;;23.17;87.09;101896.13;5058484;28;47551;-60
2022/04/14 09:47:52;;;;;;;;;6.33;6.33;;;;;23.19;86.97;101888.00;5057480;28;45431;-61
2022/04/14 09:50:24;;;;;;;;;5.00;5.00;;;;;23.20;87.04;101898.72;5048198;28;45498;-61
2022/04/14 09:53:18;;;;;;;;;6.67;5.00;;;;;23.21;86.89;101897.78;5052495;28;45425;-60
2022/04/14 09:55:50;;;;;;;;;5.00;5.00;;;;;23.22;87.11;101904.06;5050556;28;46806;-61
2022/04/14 09:58:18;;;;;;;;;7.00;6.00;;;;;23.22;86.92;101902.28;5051331;28;45343;-62
2022/04/14 10:00:46;;;;;;;;;6.67;4.00;;;;;23.22;86.71;101906.75;5055343;28;45306;-61
2022/04/14 10:03:14;;;;;;;;;5.33;5.33;;;;;23.23;86.95;101908.56;5058426;28;45444;-61
2022/04/14 10:05:40;;;;;;;;;6.33;6.33;;;;;23.22;86.77;101894.22;5050859;28;46660;-60
2022/04/14 10:08:08;;;;;;;;;5.33;4.00;;;;;23.24;86.83;101903.13;5057578;28;45911;-62
2022/04/14 10:10:36;;;;;;;;;4.00;4.00;;;;;23.26;86.50;101898.56;5058147;28;45652;-61
2022/04/14 10:13:05;;;;;;;;;8.33;6.00;;;;;23.27;86.59;101899.47;5055354;28;45516;-61
2022/04/14 10:15:31;;;;;;;;;4.33;4.33;;;;;23.26;86.16;101898.56;5057794;28;45943;-61
2022/04/14 10:17:57;;;;;;;;;3.67;3.67;;;;;23.29;86.42;101894.06;5050657;28;45437;-61
2022/04/14 10:20:25;;;;;;;;;5.00;3.67;;;;;23.29;86.27;101886.84;5051342;28;45321;-61
2022/04/14 10:22:50;;;;;;;;;7.00;5.67;;;;;23.29;86.36;101888.66;5058078;28;45321;-61
2022/04/14 10:25:16;;;;;;;;;4.00;4.00;;;;;23.30;86.37;101885.91;5057805;28;47254;-61
2022/04/14 10:27:41;;;;;;;;;5.00;5.00;;;;;23.31;86.15;101881.41;5053728;28;62301;-62
2022/04/14 10:30:07;;;;;;;;;6.67;5.00;;;;;23.31;86.34;101881.41;5057547;28;45665;-61
2022/04/14 10:32:34;;;;;;;;;3.67;3.67;;;;;23.33;86.42;101887.63;5052410;28;45348;-61
2022/04/14 10:35:04;;;;;;;;;4.33;4.33;;;;;23.32;86.23;101884.06;5054368;28;46681;-62
2022/04/14 10:37:35;;;;;;;;;4.00;4.00;;;;;23.35;85.91;101891.19;5045953;28;45361;-61
2022/04/14 10:40:00;;;;;;;;;6.67;5.33;;;;;23.32;86.30;101883.19;5052446;28;45222;-62
2022/04/14 10:42:27;;;;;;;;;4.33;3.00;;;;;23.35;86.16;101878.59;5053975;28;53790;-60
2022/04/14 10:44:54;;;;;;;;;3.67;3.00;;;;;23.36;86.37;101885.75;5056064;28;47552;-60
2022/04/14 10:47:35;;;;;;;;;3.00;3.00;;;;;23.37;86.02;101883.94;5056772;28;45426;-61
2022/04/14 10:50:02;;;;;;;;;5.00;5.00;;;;;23.30;85.97;101872.44;5053025;28;45401;-61
2022/04/14 10:52:28;;;;;;;;;3.33;3.33;;;;;23.38;86.15;101883.00;5052562;28;46388;-61
2022/04/14 10:54:57;;;;;;;;;4.00;4.00;;;;;23.38;86.15;101891.97;5049535;28;47974;-60
2022/04/14 10:57:36;;;;;;;;;6.00;5.00;;;;;23.38;86.08;101883.91;5049926;28;45477;-61
2022/04/14 11:00:02;;;;;;;;;6.00;5.00;;;;;23.40;85.95;101886.56;5055907;28;45497;-62
2022/04/14 11:03:22;;;;;;;;;5.00;4.00;;;;;23.40;86.10;101884.75;5056877;28;45558;-60
2022/04/14 11:05:49;;;;;;;;;5.00;4.00;;;;;23.40;85.87;101884.75;5013363;28;45670;-62
2022/04/14 11:08:29;;;;;;;;;5.00;5.00;;;;;23.42;85.95;101891.00;5048414;28;45368;-62
2022/04/14 11:11:13;;;;;;;;;3.00;3.00;;;;;23.43;85.68;101884.66;5053871;28;45317;-61
2022/04/14 11:13:50;;;;;;;;;4.33;4.33;;;;;23.43;85.70;101890.06;5056005;28;45439;-61
2022/04/14 11:16:41;;;;;;;;;6.00;4.33;;;;;23.44;85.79;101889.16;5056730;28;47903;-61
2022/04/14 11:19:27;;;;;;;;;3.00;3.00;;;;;23.45;85.77;101882.84;5052548;28;45549;-60
2022/04/14 11:22:02;;;;;;;;;4.00;4.00;;;;;23.43;85.82;101884.66;5056677;28;45563;-60